Time;durP1;ratioP1;P1;durP2;ratioP2;P2;SDS_P1;SDS_P2;PMS_P1;PMS_P2;Temp;Humidity;BMP_temperature;BMP_pressure;BME280_temperature;BME280_humidity;BME280_pressure;Samples;Min_cycle;Max_cycle;Signal;HPM_P1;HPM_P2
2023/08/15 00:00:12;;;;;;;361.20;320.90;;;;;;;;;;4980842;28;20022;-57
2023/08/15 00:02:37;;;;;;;377.27;325.83;;;;;;;;;;4984088;28;20025;-54
2023/08/15 00:05:03;;;;;;;420.03;332.87;;;;;;;;;;4981358;28;20029;-55
2023/08/15 00:07:28;;;;;;;313.00;252.63;;;;;;;;;;4983700;28;20042;-54
2023/08/15 00:09:53;;;;;;;322.10;267.50;;;;;;;;;;4985935;28;20026;-56
2023/08/15 00:12:19;;;;;;;308.83;254.10;;;;;;;;;;4984897;28;20035;-57
2023/08/15 00:14:44;;;;;;;368.10;329.67;;;;;;;;;;4985950;28;20690;-57
2023/08/15 00:17:09;;;;;;;442.52;362.63;;;;;;;;;;4986012;28;20035;-57
2023/08/15 00:19:34;;;;;;;355.43;300.10;;;;;;;;;;4988002;28;20024;-54
2023/08/15 00:22:00;;;;;;;383.90;323.50;;;;;;;;;;4983960;28;20369;-56
2023/08/15 00:24:25;;;;;;;349.20;290.77;;;;;;;;;;4987659;28;20072;-57
2023/08/15 00:26:50;;;;;;;348.97;288.90;;;;;;;;;;4988329;28;20034;-56
2023/08/15 00:29:16;;;;;;;400.70;357.77;;;;;;;;;;4987317;28;20031;-55
2023/08/15 00:31:41;;;;;;;452.63;406.03;;;;;;;;;;4984868;28;20287;-57
2023/08/15 00:34:06;;;;;;;382.30;273.97;;;;;;;;;;4984642;28;20265;-54
2023/08/15 00:36:31;;;;;;;483.83;436.13;;;;;;;;;;4984170;28;20286;-55
2023/08/15 00:39:01;;;;;;;477.40;427.42;;;;;;;;;;4982337;28;20040;-57
2023/08/15 00:41:26;;;;;;;379.23;338.67;;;;;;;;;;4987405;28;20045;-56
2023/08/15 00:43:52;;;;;;;385.60;334.53;;;;;;;;;;4986517;28;20026;-54
2023/08/15 00:46:17;;;;;;;422.60;377.17;;;;;;;;;;4983034;28;20045;-55
2023/08/15 00:48:42;;;;;;;347.67;293.70;;;;;;;;;;4988330;28;20021;-55
2023/08/15 00:51:08;;;;;;;416.93;326.13;;;;;;;;;;4984740;28;20031;-54
2023/08/15 00:53:34;;;;;;;504.85;458.63;;;;;;;;;;4987077;28;20296;-57
2023/08/15 00:55:59;;;;;;;428.17;377.73;;;;;;;;;;4982422;28;20182;-55
2023/08/15 00:58:25;;;;;;;337.60;283.65;;;;;;;;;;4985494;28;20034;-57
2023/08/15 01:00:51;;;;;;;311.85;248.77;;;;;;;;;;4984658;28;20154;-55
2023/08/15 01:03:17;;;;;;;381.98;341.60;;;;;;;;;;4983040;28;20715;-59
2023/08/15 01:05:43;;;;;;;325.60;240.32;;;;;;;;;;4984004;28;20414;-55
2023/08/15 01:08:08;;;;;;;408.48;346.95;;;;;;;;;;4986052;28;20022;-56
2023/08/15 01:10:34;;;;;;;395.23;353.57;;;;;;;;;;4984549;28;20049;-55
2023/08/15 01:13:08;;;;;;;482.75;427.73;;;;;;;;;;4983543;28;20281;-57
2023/08/15 01:15:36;;;;;;;395.60;354.13;;;;;;;;;;4984190;28;20046;-55
2023/08/15 01:18:05;;;;;;;396.88;342.52;;;;;;;;;;4984206;28;20447;-57
2023/08/15 01:20:34;;;;;;;382.52;341.52;;;;;;;;;;4987576;28;20046;-57
2023/08/15 01:23:01;;;;;;;275.25;183.57;;;;;;;;;;4987062;28;20038;-56
2023/08/15 01:25:26;;;;;;;387.58;344.88;;;;;;;;;;4984297;28;20569;-55
2023/08/15 01:27:51;;;;;;;434.85;389.52;;;;;;;;;;4984855;28;20026;-55
2023/08/15 01:30:17;;;;;;;122.73;51.93;;;;;;;;;;4987353;28;20141;-56
2023/08/15 01:32:48;;;;;;;369.90;325.55;;;;;;;;;;4987869;28;20286;-55
2023/08/15 01:35:19;;;;;;;420.23;366.95;;;;;;;;;;4987815;28;20502;-58
2023/08/15 01:37:47;;;;;;;348.33;292.25;;;;;;;;;;4986983;28;20084;-57
2023/08/15 01:40:15;;;;;;;426.30;346.83;;;;;;;;;;4984367;28;20530;-57
2023/08/15 01:42:40;;;;;;;415.80;372.52;;;;;;;;;;4988755;28;20010;-57
2023/08/15 01:45:06;;;;;;;441.15;386.88;;;;;;;;;;4983655;28;20202;-57
2023/08/15 01:47:32;;;;;;;156.40;69.40;;;;;;;;;;4986008;28;20050;-57
2023/08/15 01:49:57;;;;;;;389.67;348.63;;;;;;;;;;4984177;28;20072;-57
2023/08/15 01:52:22;;;;;;;334.90;301.80;;;;;;;;;;4983429;28;20040;-56
2023/08/15 01:54:47;;;;;;;363.10;325.27;;;;;;;;;;4992031;28;20335;-57
2023/08/15 01:57:13;;;;;;;427.20;350.67;;;;;;;;;;4983416;28;20088;-57
2023/08/15 01:59:38;;;;;;;273.67;208.87;;;;;;;;;;4985816;28;21077;-56
2023/08/15 02:02:06;;;;;;;420.27;366.58;;;;;;;;;;4985869;28;20285;-55
2023/08/15 02:04:31;;;;;;;385.58;345.00;;;;;;;;;;4987746;28;20041;-57
2023/08/15 02:06:57;;;;;;;360.48;323.40;;;;;;;;;;4983569;28;20596;-56
2023/08/15 02:09:22;;;;;;;428.55;385.75;;;;;;;;;;4983569;28;20127;-57
2023/08/15 02:11:47;;;;;;;419.83;376.27;;;;;;;;;;4984871;28;20033;-57
2023/08/15 02:14:12;;;;;;;461.83;403.23;;;;;;;;;;4984125;28;20022;-56
2023/08/15 02:16:38;;;;;;;251.07;198.48;;;;;;;;;;4984826;28;20285;-57
2023/08/15 02:19:03;;;;;;;404.63;327.87;;;;;;;;;;4982952;28;20022;-56
2023/08/15 02:21:28;;;;;;;455.67;409.77;;;;;;;;;;4985002;28;20034;-57
2023/08/15 02:23:53;;;;;;;369.02;323.25;;;;;;;;;;4982610;28;20084;-57
2023/08/15 02:26:19;;;;;;;394.37;352.63;;;;;;;;;;4982391;28;20164;-56
2023/08/15 02:28:44;;;;;;;249.27;215.90;;;;;;;;;;4984235;28;20929;-56
2023/08/15 02:31:10;;;;;;;404.63;341.70;;;;;;;;;;4980301;28;20273;-56
2023/08/15 02:33:36;;;;;;;449.55;403.63;;;;;;;;;;4984954;28;20025;-58
2023/08/15 02:36:05;;;;;;;392.35;350.70;;;;;;;;;;4983336;28;20088;-56
2023/08/15 02:38:31;;;;;;;378.58;338.92;;;;;;;;;;4984500;28;20041;-55
2023/08/15 02:40:56;;;;;;;430.42;384.08;;;;;;;;;;4983451;28;20049;-55
2023/08/15 02:43:21;;;;;;;256.83;187.10;;;;;;;;;;4983655;28;20054;-56
2023/08/15 02:45:46;;;;;;;291.98;243.68;;;;;;;;;;4981594;28;20121;-55
2023/08/15 02:48:12;;;;;;;430.20;367.73;;;;;;;;;;4981159;28;20364;-55
2023/08/15 02:50:37;;;;;;;387.52;348.08;;;;;;;;;;4984612;28;20338;-56
2023/08/15 02:53:02;;;;;;;181.63;92.00;;;;;;;;;;4982089;28;20021;-55
2023/08/15 02:55:27;;;;;;;197.20;95.75;;;;;;;;;;4981643;28;20290;-55
2023/08/15 02:57:53;;;;;;;228.73;173.63;;;;;;;;;;4984167;28;20093;-55
2023/08/15 03:00:18;;;;;;;355.40;243.37;;;;;;;;;;4981995;28;20013;-56
2023/08/15 03:02:43;;;;;;;257.17;162.73;;;;;;;;;;4983406;28;20038;-55
2023/08/15 03:05:08;;;;;;;416.60;359.13;;;;;;;;;;4982551;28;20446;-55
2023/08/15 03:07:33;;;;;;;398.87;357.07;;;;;;;;;;4984361;28;20536;-57
2023/08/15 03:09:59;;;;;;;395.70;352.13;;;;;;;;;;4980837;28;20257;-56
2023/08/15 03:12:24;;;;;;;415.97;375.33;;;;;;;;;;4981010;28;20050;-56
2023/08/15 03:14:49;;;;;;;299.90;267.27;;;;;;;;;;4984599;28;20029;-57
2023/08/15 03:17:14;;;;;;;396.93;317.97;;;;;;;;;;4983223;28;20118;-57
2023/08/15 03:19:40;;;;;;;214.05;159.07;;;;;;;;;;4985155;28;20026;-56
2023/08/15 03:22:08;;;;;;;260.52;165.45;;;;;;;;;;4981094;28;20046;-55
2023/08/15 03:24:33;;;;;;;154.95;59.58;;;;;;;;;;4981665;28;20144;-56
2023/08/15 03:26:59;;;;;;;325.95;292.35;;;;;;;;;;4982458;28;20040;-57
2023/08/15 03:29:24;;;;;;;172.82;105.82;;;;;;;;;;4984192;28;20021;-55
2023/08/15 03:31:49;;;;;;;261.33;192.10;;;;;;;;;;4983662;28;20030;-57
2023/08/15 03:34:14;;;;;;;329.13;231.00;;;;;;;;;;4983087;28;20343;-55
2023/08/15 03:36:40;;;;;;;386.83;346.33;;;;;;;;;;4982612;28;20959;-56
2023/08/15 03:39:06;;;;;;;314.35;248.05;;;;;;;;;;4981141;28;20058;-58
2023/08/15 03:41:31;;;;;;;217.63;173.03;;;;;;;;;;4981994;28;20162;-56
2023/08/15 03:43:56;;;;;;;303.60;228.73;;;;;;;;;;4984443;28;20337;-58
2023/08/15 03:46:21;;;;;;;367.67;269.07;;;;;;;;;;4982353;28;20286;-58
2023/08/15 03:48:47;;;;;;;230.63;172.53;;;;;;;;;;4983473;28;20679;-58
2023/08/15 03:51:12;;;;;;;333.23;225.30;;;;;;;;;;4984024;28;20282;-57
2023/08/15 03:53:38;;;;;;;172.82;74.65;;;;;;;;;;4986578;28;20352;-58
2023/08/15 03:56:03;;;;;;;259.13;217.40;;;;;;;;;;4985061;28;20034;-57
2023/08/15 03:58:28;;;;;;;270.45;231.60;;;;;;;;;;4984035;28;20636;-58
2023/08/15 04:00:54;;;;;;;156.05;51.97;;;;;;;;;;4985985;28;20026;-56
2023/08/15 04:03:19;;;;;;;246.73;136.38;;;;;;;;;;4986246;28;20946;-56
2023/08/15 04:05:47;;;;;;;167.85;94.28;;;;;;;;;;4986381;28;20049;-59
2023/08/15 04:08:13;;;;;;;260.33;114.57;;;;;;;;;;4986105;28;20128;-58
2023/08/15 04:10:41;;;;;;;161.45;86.45;;;;;;;;;;4985966;28;20038;-58
2023/08/15 04:13:07;;;;;;;266.80;221.13;;;;;;;;;;4986052;28;20631;-58
2023/08/15 04:15:33;;;;;;;294.90;236.05;;;;;;;;;;4988099;28;20546;-57
2023/08/15 04:17:58;;;;;;;222.55;145.93;;;;;;;;;;4985728;28;20175;-54
2023/08/15 04:20:24;;;;;;;319.73;186.03;;;;;;;;;;4984570;28;20022;-55
2023/08/15 04:22:49;;;;;;;136.13;63.77;;;;;;;;;;4985913;28;20853;-54
2023/08/15 04:25:14;;;;;;;244.57;151.43;;;;;;;;;;4985067;28;20566;-57
2023/08/15 04:27:40;;;;;;;111.97;32.95;;;;;;;;;;4985124;28;20516;-56
2023/08/15 04:30:05;;;;;;;226.53;180.80;;;;;;;;;;4987664;28;20022;-55
2023/08/15 04:32:30;;;;;;;144.98;68.70;;;;;;;;;;4983463;28;20404;-56
2023/08/15 04:34:56;;;;;;;164.90;75.87;;;;;;;;;;4987512;28;20062;-55
2023/08/15 04:37:22;;;;;;;157.73;29.65;;;;;;;;;;4984161;28;20822;-55
2023/08/15 04:39:47;;;;;;;239.45;177.23;;;;;;;;;;4986796;28;20054;-55
2023/08/15 04:42:12;;;;;;;352.33;221.00;;;;;;;;;;4986150;28;20053;-55
2023/08/15 04:44:37;;;;;;;249.53;200.17;;;;;;;;;;4986180;28;20265;-56
2023/08/15 04:47:03;;;;;;;128.10;36.17;;;;;;;;;;4987392;28;21102;-56
2023/08/15 04:49:28;;;;;;;132.85;37.00;;;;;;;;;;4984097;28;20319;-55
2023/08/15 04:51:53;;;;;;;287.70;233.80;;;;;;;;;;4986408;28;20554;-56
2023/08/15 04:54:18;;;;;;;433.13;370.93;;;;;;;;;;4987182;28;20353;-55
2023/08/15 04:56:44;;;;;;;135.73;33.97;;;;;;;;;;4986098;28;20269;-55
2023/08/15 04:59:09;;;;;;;179.23;71.90;;;;;;;;;;4985876;28;20030;-56
2023/08/15 05:01:34;;;;;;;413.60;370.93;;;;;;;;;;4985671;28;20393;-57
2023/08/15 05:03:59;;;;;;;442.90;397.75;;;;;;;;;;4986658;28;20319;-57
2023/08/15 05:06:25;;;;;;;362.87;246.27;;;;;;;;;;4983919;28;20104;-57
2023/08/15 05:08:50;;;;;;;133.57;66.67;;;;;;;;;;4986666;28;20266;-58
2023/08/15 05:11:15;;;;;;;448.90;360.33;;;;;;;;;;4984561;28;20281;-56
2023/08/15 05:13:40;;;;;;;467.02;417.45;;;;;;;;;;4986290;28;21110;-57
2023/08/15 05:16:06;;;;;;;311.87;257.23;;;;;;;;;;4985684;28;20026;-58
2023/08/15 05:18:31;;;;;;;384.77;343.37;;;;;;;;;;4983666;28;20268;-59
2023/08/15 05:20:56;;;;;;;335.53;264.30;;;;;;;;;;4987461;28;20042;-59
2023/08/15 05:23:21;;;;;;;392.15;343.85;;;;;;;;;;4986461;28;20635;-58
2023/08/15 05:25:47;;;;;;;436.52;390.33;;;;;;;;;;4983959;28;20165;-56
2023/08/15 05:28:12;;;;;;;368.00;307.47;;;;;;;;;;4984209;28;20025;-57
2023/08/15 05:30:37;;;;;;;299.80;213.77;;;;;;;;;;4986613;28;20277;-57
2023/08/15 05:33:03;;;;;;;359.08;296.60;;;;;;;;;;4986742;28;20150;-57
2023/08/15 05:35:28;;;;;;;437.45;364.67;;;;;;;;;;4983011;28;20358;-57
2023/08/15 05:37:54;;;;;;;429.75;384.85;;;;;;;;;;4982850;28;20091;-58
2023/08/15 05:40:19;;;;;;;383.65;242.48;;;;;;;;;;4984113;28;20061;-58
2023/08/15 05:42:45;;;;;;;298.77;252.98;;;;;;;;;;4986274;28;20018;-58
2023/08/15 05:45:10;;;;;;;354.50;316.27;;;;;;;;;;4983139;28;20586;-58
2023/08/15 05:47:35;;;;;;;349.50;293.87;;;;;;;;;;4982622;28;20643;-58
2023/08/15 05:50:01;;;;;;;300.13;264.07;;;;;;;;;;4984492;28;20261;-57
2023/08/15 05:52:27;;;;;;;370.02;281.38;;;;;;;;;;4983078;28;20865;-55
2023/08/15 05:54:52;;;;;;;280.58;210.27;;;;;;;;;;4984601;28;20013;-56
2023/08/15 05:57:17;;;;;;;279.13;189.70;;;;;;;;;;4982239;28;20037;-55
2023/08/15 05:59:43;;;;;;;260.50;224.95;;;;;;;;;;4985534;28;20033;-57
2023/08/15 06:02:08;;;;;;;286.97;209.47;;;;;;;;;;4984767;28;20092;-55
2023/08/15 06:04:33;;;;;;;425.83;382.53;;;;;;;;;;4982793;28;20034;-55
2023/08/15 06:06:59;;;;;;;389.65;347.20;;;;;;;;;;4982559;28;20759;-55
2023/08/15 06:09:25;;;;;;;506.30;434.27;;;;;;;;;;4984142;28;20091;-56
2023/08/15 06:11:50;;;;;;;288.80;258.13;;;;;;;;;;4984728;28;20033;-55
2023/08/15 06:14:17;;;;;;;279.43;236.80;;;;;;;;;;4982516;28;20018;-55
2023/08/15 06:16:42;;;;;;;266.83;219.50;;;;;;;;;;4981287;28;20447;-57
2023/08/15 06:19:08;;;;;;;256.53;228.87;;;;;;;;;;4987008;28;20023;-56
2023/08/15 06:21:33;;;;;;;299.73;269.35;;;;;;;;;;4983131;28;20100;-56
2023/08/15 06:23:58;;;;;;;278.63;245.30;;;;;;;;;;4982355;28;20018;-56
2023/08/15 06:26:24;;;;;;;317.00;252.73;;;;;;;;;;4982372;28;20031;-56
2023/08/15 06:28:50;;;;;;;290.97;261.73;;;;;;;;;;4983290;28;20113;-57
2023/08/15 06:31:15;;;;;;;316.13;282.70;;;;;;;;;;4984286;28;20125;-56
2023/08/15 06:33:40;;;;;;;328.75;296.40;;;;;;;;;;4984009;28;20037;-57
2023/08/15 06:36:06;;;;;;;320.33;287.60;;;;;;;;;;4984146;28;20038;-56
2023/08/15 06:38:31;;;;;;;324.73;258.20;;;;;;;;;;4981032;28;20042;-57
2023/08/15 06:40:58;;;;;;;382.53;346.13;;;;;;;;;;4983713;28;20830;-58
2023/08/15 06:43:23;;;;;;;376.08;314.88;;;;;;;;;;4981806;28;20018;-57
2023/08/15 06:45:48;;;;;;;302.83;271.07;;;;;;;;;;4983503;28;20044;-57
2023/08/15 06:48:14;;;;;;;403.65;365.92;;;;;;;;;;4984768;28;20633;-56
2023/08/15 06:50:39;;;;;;;374.58;337.83;;;;;;;;;;4983735;28;20030;-57
2023/08/15 06:53:05;;;;;;;407.23;364.53;;;;;;;;;;4985090;28;20021;-57
2023/08/15 06:55:30;;;;;;;356.80;314.90;;;;;;;;;;4982113;28;20261;-58
2023/08/15 06:57:55;;;;;;;348.15;313.15;;;;;;;;;;4985472;28;20034;-57
2023/08/15 07:00:21;;;;;;;338.93;286.17;;;;;;;;;;4983017;28;20026;-56
2023/08/15 07:02:46;;;;;;;314.20;283.40;;;;;;;;;;4985595;28;20117;-57
2023/08/15 07:05:11;;;;;;;441.07;398.30;;;;;;;;;;4986150;28;20757;-57
2023/08/15 07:07:39;;;;;;;370.47;335.17;;;;;;;;;;4985699;28;20632;-56
2023/08/15 07:10:07;;;;;;;322.63;292.15;;;;;;;;;;4987937;28;20034;-56
2023/08/15 07:12:33;;;;;;;434.73;387.20;;;;;;;;;;4985984;28;20149;-56
2023/08/15 07:14:59;;;;;;;351.55;318.50;;;;;;;;;;4986643;28;20011;-56
2023/08/15 07:17:24;;;;;;;413.60;371.97;;;;;;;;;;4986165;28;20479;-57
2023/08/15 07:19:49;;;;;;;447.20;404.20;;;;;;;;;;4990540;28;20033;-56
2023/08/15 07:22:14;;;;;;;331.20;298.30;;;;;;;;;;4989242;28;20045;-55
2023/08/15 07:24:40;;;;;;;447.63;400.47;;;;;;;;;;4989376;28;20075;-56
2023/08/15 07:27:05;;;;;;;312.20;281.73;;;;;;;;;;4990257;28;20295;-56
2023/08/15 07:29:30;;;;;;;339.93;304.80;;;;;;;;;;4989931;28;20272;-56
2023/08/15 07:31:55;;;;;;;370.37;335.73;;;;;;;;;;4990541;28;20033;-56
2023/08/15 07:34:21;;;;;;;349.83;315.27;;;;;;;;;;4990558;28;20376;-56
2023/08/15 07:36:46;;;;;;;296.37;267.23;;;;;;;;;;4990680;28;20364;-55
2023/08/15 07:39:11;;;;;;;395.60;356.20;;;;;;;;;;4990464;28;20348;-56
2023/08/15 07:41:36;;;;;;;423.83;382.90;;;;;;;;;;4990496;28;20075;-58
2023/08/15 07:44:02;;;;;;;366.77;329.57;;;;;;;;;;4990497;28;20026;-58
2023/08/15 07:46:27;;;;;;;505.50;443.37;;;;;;;;;;4989007;28;20046;-56
2023/08/15 07:48:53;;;;;;;558.30;457.40;;;;;;;;;;4992310;28;20028;-57
2023/08/15 07:51:18;;;;;;;483.65;429.60;;;;;;;;;;4988393;28;20025;-56
2023/08/15 07:53:43;;;;;;;389.73;351.87;;;;;;;;;;4992380;28;20042;-57
2023/08/15 07:56:08;;;;;;;465.57;418.00;;;;;;;;;;4990108;28;20073;-56
2023/08/15 07:58:35;;;;;;;432.27;385.13;;;;;;;;;;4990978;28;20447;-58
2023/08/15 08:01:00;;;;;;;371.10;335.15;;;;;;;;;;4997721;28;20038;-56
2023/08/15 08:03:25;;;;;;;472.53;417.57;;;;;;;;;;4990152;28;20038;-57
2023/08/15 08:05:51;;;;;;;478.50;427.17;;;;;;;;;;4990464;28;20718;-56
2023/08/15 08:08:16;;;;;;;498.60;400.10;;;;;;;;;;4991520;28;20563;-57
2023/08/15 08:10:41;;;;;;;537.90;481.20;;;;;;;;;;4989179;28;20798;-57
2023/08/15 08:13:09;;;;;;;353.13;250.33;;;;;;;;;;4991736;28;20018;-58
2023/08/15 08:15:34;;;;;;;375.50;338.15;;;;;;;;;;4989775;28;20038;-58
2023/08/15 08:17:59;;;;;;;501.23;448.05;;;;;;;;;;4992056;28;20020;-59
2023/08/15 08:20:26;;;;;;;505.43;447.07;;;;;;;;;;4989766;28;20026;-59
2023/08/15 08:22:51;;;;;;;504.88;455.75;;;;;;;;;;4989126;28;21018;-59
2023/08/15 08:25:19;;;;;;;606.27;499.83;;;;;;;;;;4990095;28;20041;-57
2023/08/15 08:27:44;;;;;;;461.50;418.50;;;;;;;;;;4990947;28;20193;-58
2023/08/15 08:30:10;;;;;;;486.15;431.15;;;;;;;;;;4990650;28;20209;-59
2023/08/15 08:32:35;;;;;;;405.05;363.27;;;;;;;;;;4990453;28;20030;-57
2023/08/15 08:35:00;;;;;;;523.40;472.07;;;;;;;;;;4989123;28;20022;-57
2023/08/15 08:37:26;;;;;;;626.80;558.43;;;;;;;;;;4989424;28;20049;-57
2023/08/15 08:39:51;;;;;;;659.00;590.13;;;;;;;;;;4990218;28;20030;-56
2023/08/15 08:42:16;;;;;;;561.13;500.53;;;;;;;;;;4989934;28;20234;-58
2023/08/15 08:44:42;;;;;;;552.63;496.27;;;;;;;;;;4988952;28;20292;-55
2023/08/15 08:47:07;;;;;;;499.08;450.42;;;;;;;;;;4988710;28;20088;-56
2023/08/15 08:49:32;;;;;;;524.17;463.90;;;;;;;;;;4989130;28;20026;-56
2023/08/15 08:51:59;;;;;;;586.60;523.57;;;;;;;;;;4990774;28;20296;-56
2023/08/15 08:54:24;;;;;;;638.42;514.50;;;;;;;;;;4990417;28;20018;-57
2023/08/15 08:56:51;;;;;;;573.33;496.00;;;;;;;;;;4991305;28;20030;-61
2023/08/15 08:59:21;;;;;;;579.30;516.20;;;;;;;;;;4990273;28;20021;-56
2023/08/15 09:01:47;;;;;;;355.00;317.35;;;;;;;;;;4989398;28;20053;-58
2023/08/15 09:04:12;;;;;;;581.28;523.40;;;;;;;;;;4989627;28;20030;-57
2023/08/15 09:06:37;;;;;;;428.20;384.13;;;;;;;;;;4986502;28;20045;-57
2023/08/15 09:09:03;;;;;;;496.10;442.60;;;;;;;;;;4992373;28;20108;-58
2023/08/15 09:11:32;;;;;;;382.40;339.25;;;;;;;;;;4988704;28;20034;-58
2023/08/15 09:14:01;;;;;;;470.13;422.65;;;;;;;;;;4989376;28;20068;-57
2023/08/15 09:16:26;;;;;;;425.05;379.48;;;;;;;;;;4988555;28;20030;-57
2023/08/15 09:18:51;;;;;;;340.33;306.23;;;;;;;;;;4989017;28;20018;-58
2023/08/15 09:21:17;;;;;;;473.80;426.13;;;;;;;;;;4990545;28;21664;-58
2023/08/15 09:23:42;;;;;;;351.93;315.30;;;;;;;;;;4988059;28;20661;-57
2023/08/15 09:26:12;;;;;;;363.38;328.73;;;;;;;;;;4990261;28;20022;-58
2023/08/15 09:28:41;;;;;;;441.58;393.70;;;;;;;;;;4986685;28;20019;-57
2023/08/15 09:31:06;;;;;;;375.27;337.50;;;;;;;;;;4990719;28;20067;-56
2023/08/15 09:33:34;;;;;;;583.00;441.90;;;;;;;;;;4987837;28;20154;-57
2023/08/15 09:36:03;;;;;;;453.20;358.60;;;;;;;;;;4988527;28;20046;-57
2023/08/15 09:38:28;;;;;;;491.60;444.23;;;;;;;;;;4989607;28;20045;-58
2023/08/15 09:40:55;;;;;;;461.10;412.58;;;;;;;;;;4987119;28;20038;-58
2023/08/15 09:43:20;;;;;;;649.08;526.95;;;;;;;;;;4988250;28;20022;-58
2023/08/15 09:45:45;;;;;;;431.73;388.23;;;;;;;;;;4985980;28;20034;-57
2023/08/15 09:48:11;;;;;;;439.73;393.25;;;;;;;;;;4990492;28;20019;-56
2023/08/15 09:50:37;;;;;;;403.77;358.85;;;;;;;;;;4987286;28;20030;-57
2023/08/15 09:53:04;;;;;;;624.63;559.22;;;;;;;;;;4988586;28;21025;-57
2023/08/15 09:55:30;;;;;;;687.85;533.30;;;;;;;;;;4985394;28;20525;-56
2023/08/15 09:57:55;;;;;;;722.83;577.47;;;;;;;;;;4986410;28;20022;-57
2023/08/15 10:00:20;;;;;;;387.17;348.57;;;;;;;;;;4988337;28;20037;-56
2023/08/15 10:02:48;;;;;;;699.57;544.93;;;;;;;;;;4984767;28;20300;-57
2023/08/15 10:05:17;;;;;;;434.63;387.50;;;;;;;;;;4988146;28;20022;-56
2023/08/15 10:07:43;;;;;;;655.70;506.58;;;;;;;;;;4985860;28;20653;-57
2023/08/15 10:10:09;;;;;;;555.78;497.20;;;;;;;;;;4987600;28;20022;-56
2023/08/15 10:12:36;;;;;;;541.55;413.88;;;;;;;;;;4986874;28;20026;-57
2023/08/15 10:15:01;;;;;;;524.60;432.80;;;;;;;;;;4986312;28;20030;-57
2023/08/15 10:17:28;;;;;;;331.08;300.35;;;;;;;;;;4985117;28;20042;-56
2023/08/15 10:19:54;;;;;;;571.78;428.17;;;;;;;;;;4987009;28;20022;-57
2023/08/15 10:22:19;;;;;;;620.30;474.92;;;;;;;;;;4985262;28;20048;-56
2023/08/15 10:24:45;;;;;;;704.47;535.38;;;;;;;;;;4987160;28;20023;-57
2023/08/15 10:27:10;;;;;;;656.60;535.70;;;;;;;;;;4986126;28;20032;-57
2023/08/15 10:29:53;;;;;;;581.50;467.55;;;;;;;;;;4986712;28;20349;-59
2023/08/15 10:32:22;;;;;;;665.13;555.60;;;;;;;;;;4988662;28;20440;-57
2023/08/15 10:34:54;;;;;;;415.27;366.80;;;;;;;;;;4988292;28;21160;-57
2023/08/15 10:37:30;;;;;;;341.30;308.50;;;;;;;;;;4985339;28;20084;-56
2023/08/15 10:40:05;;;;;;;452.83;406.55;;;;;;;;;;4987851;28;20038;-59
2023/08/15 10:42:50;;;;;;;453.27;397.60;;;;;;;;;;4983870;28;20045;-56
2023/08/15 10:45:15;;;;;;;680.08;554.75;;;;;;;;;;4984717;28;20116;-57
2023/08/15 10:47:45;;;;;;;683.87;580.00;;;;;;;;;;4986400;28;20033;-58
2023/08/15 10:50:11;;;;;;;667.13;530.75;;;;;;;;;;4987933;28;20022;-58
2023/08/15 10:52:39;;;;;;;433.20;386.02;;;;;;;;;;4988282;28;20111;-58
2023/08/15 10:55:04;;;;;;;407.40;364.58;;;;;;;;;;4988843;28;20133;-57
2023/08/15 10:57:31;;;;;;;396.77;355.02;;;;;;;;;;4985281;28;20028;-57
2023/08/15 10:59:57;;;;;;;510.92;459.50;;;;;;;;;;4987115;28;20037;-56
2023/08/15 11:02:22;;;;;;;446.17;397.65;;;;;;;;;;4988119;28;20026;-58
2023/08/15 11:04:48;;;;;;;376.85;336.60;;;;;;;;;;4983308;28;20030;-58
2023/08/15 11:07:23;;;;;;;543.15;485.13;;;;;;;;;;4985632;28;20030;-58
2023/08/15 11:09:50;;;;;;;628.28;511.13;;;;;;;;;;4984233;28;20053;-58
2023/08/15 11:12:15;;;;;;;434.65;390.00;;;;;;;;;;4985256;28;20046;-58
2023/08/15 11:14:40;;;;;;;539.07;455.17;;;;;;;;;;4985368;28;20653;-56
2023/08/15 11:17:06;;;;;;;573.30;512.60;;;;;;;;;;4985270;28;20324;-56
2023/08/15 11:19:32;;;;;;;518.47;466.33;;;;;;;;;;4984837;28;20030;-57
2023/08/15 11:21:58;;;;;;;545.08;459.00;;;;;;;;;;4985611;28;20044;-57
2023/08/15 11:24:23;;;;;;;462.33;412.25;;;;;;;;;;4986677;28;20038;-57
2023/08/15 11:26:49;;;;;;;666.85;500.58;;;;;;;;;;4985105;28;20042;-57
2023/08/15 11:29:14;;;;;;;552.22;458.52;;;;;;;;;;4987922;28;20015;-56
2023/08/15 11:31:39;;;;;;;561.27;436.87;;;;;;;;;;4985116;28;20037;-57
2023/08/15 11:34:06;;;;;;;580.43;500.50;;;;;;;;;;4986187;28;20045;-58
2023/08/15 11:36:31;;;;;;;704.15;549.08;;;;;;;;;;4987041;28;20137;-56
2023/08/15 11:38:59;;;;;;;493.00;435.80;;;;;;;;;;4984931;28;20117;-59
2023/08/15 11:41:24;;;;;;;568.00;497.15;;;;;;;;;;4985943;28;20946;-56
2023/08/15 11:43:50;;;;;;;405.97;359.23;;;;;;;;;;4986783;28;20544;-56
2023/08/15 11:46:15;;;;;;;547.77;496.00;;;;;;;;;;4986036;28;20042;-56
2023/08/15 11:48:43;;;;;;;520.83;464.77;;;;;;;;;;4985179;28;21087;-56
2023/08/15 11:51:08;;;;;;;514.83;461.23;;;;;;;;;;4987810;28;20270;-56
2023/08/15 11:53:33;;;;;;;553.10;497.48;;;;;;;;;;4985934;28;20722;-56
2023/08/15 11:55:59;;;;;;;415.57;375.63;;;;;;;;;;4985379;28;20034;-58
2023/08/15 11:58:28;;;;;;;368.87;332.23;;;;;;;;;;4988883;28;20788;-56
2023/08/15 12:00:56;;;;;;;376.15;338.15;;;;;;;;;;4984535;28;20037;-56
2023/08/15 12:03:24;;;;;;;387.23;350.38;;;;;;;;;;4987589;28;20531;-57
2023/08/15 12:05:52;;;;;;;458.63;412.00;;;;;;;;;;4984015;28;20030;-57
2023/08/15 12:08:17;;;;;;;513.40;464.67;;;;;;;;;;4994154;28;20032;-57
2023/08/15 12:10:43;;;;;;;507.37;458.27;;;;;;;;;;4985636;28;20027;-58
2023/08/15 12:13:09;;;;;;;501.77;456.17;;;;;;;;;;4992459;28;20548;-57
2023/08/15 12:15:34;;;;;;;435.70;393.42;;;;;;;;;;4988641;28;20310;-57
2023/08/15 12:17:59;;;;;;;360.83;326.23;;;;;;;;;;4989102;28;20033;-58
2023/08/15 12:20:24;;;;;;;468.23;423.67;;;;;;;;;;4988879;28;20702;-58
2023/08/15 12:22:49;;;;;;;455.47;410.13;;;;;;;;;;4989094;28;20955;-58
2023/08/15 12:25:15;;;;;;;439.93;399.57;;;;;;;;;;4992003;28;20376;-58
2023/08/15 12:27:40;;;;;;;484.73;436.07;;;;;;;;;;4989008;28;20094;-58
2023/08/15 12:30:06;;;;;;;466.25;423.42;;;;;;;;;;4990194;28;20707;-57
2023/08/15 12:32:31;;;;;;;442.52;395.65;;;;;;;;;;4990081;28;20038;-56
2023/08/15 12:34:57;;;;;;;494.25;446.42;;;;;;;;;;4988454;28;20017;-58
2023/08/15 12:37:23;;;;;;;489.67;445.83;;;;;;;;;;4987816;28;20025;-58
2023/08/15 12:39:48;;;;;;;427.65;381.08;;;;;;;;;;4989234;28;20029;-56
2023/08/15 12:42:14;;;;;;;553.47;501.52;;;;;;;;;;4987824;28;20062;-56
2023/08/15 12:44:39;;;;;;;488.45;442.35;;;;;;;;;;4988856;28;20026;-56
2023/08/15 12:47:04;;;;;;;441.85;399.58;;;;;;;;;;4988201;28;20034;-56
2023/08/15 12:49:30;;;;;;;420.33;378.70;;;;;;;;;;4988021;28;20030;-56
2023/08/15 12:51:55;;;;;;;432.70;394.23;;;;;;;;;;4987961;28;20048;-57
2023/08/15 12:54:20;;;;;;;571.25;508.70;;;;;;;;;;4989283;28;20262;-56
2023/08/15 12:56:46;;;;;;;516.20;464.42;;;;;;;;;;4986779;28;20049;-56
2023/08/15 12:59:11;;;;;;;534.93;418.90;;;;;;;;;;4989044;28;20030;-58
2023/08/15 13:01:37;;;;;;;524.92;473.70;;;;;;;;;;4987632;28;20049;-56
2023/08/15 13:04:02;;;;;;;389.00;350.00;;;;;;;;;;4989476;28;20675;-56
2023/08/15 13:06:27;;;;;;;415.20;375.63;;;;;;;;;;4987211;28;20130;-55
2023/08/15 13:08:52;;;;;;;417.13;373.47;;;;;;;;;;4988924;28;20084;-55
2023/08/15 13:11:18;;;;;;;426.20;384.13;;;;;;;;;;4987517;28;21035;-55
2023/08/15 13:13:43;;;;;;;393.25;352.30;;;;;;;;;;4988473;28;20089;-56
2023/08/15 13:16:09;;;;;;;407.63;367.40;;;;;;;;;;4989079;28;20116;-57
2023/08/15 13:18:34;;;;;;;489.58;401.67;;;;;;;;;;4987836;28;20053;-56
2023/08/15 13:21:00;;;;;;;410.40;369.50;;;;;;;;;;4986428;28;20029;-57
2023/08/15 13:23:25;;;;;;;405.77;363.67;;;;;;;;;;4989172;28;20034;-55
2023/08/15 13:25:50;;;;;;;370.10;330.60;;;;;;;;;;4986320;28;20543;-55
2023/08/15 13:28:16;;;;;;;402.42;356.30;;;;;;;;;;4990178;28;20296;-56
2023/08/15 13:30:42;;;;;;;406.48;363.45;;;;;;;;;;4986827;28;20065;-56
2023/08/15 13:33:07;;;;;;;332.20;299.23;;;;;;;;;;4988794;28;20022;-56
2023/08/15 13:35:32;;;;;;;271.07;243.13;;;;;;;;;;4988487;28;20673;-57
2023/08/15 13:37:58;;;;;;;406.53;364.10;;;;;;;;;;4985867;28;20037;-56
2023/08/15 13:40:23;;;;;;;418.90;381.13;;;;;;;;;;4988616;28;20030;-58
2023/08/15 13:42:48;;;;;;;319.63;279.23;;;;;;;;;;4988311;28;20026;-57
2023/08/15 13:45:14;;;;;;;339.57;304.33;;;;;;;;;;4986475;28;20042;-58